Pagina principale
METAR-TAF:

METAR-TAF

Aeroporti :

Aeroporto Internazionale del Cairo

Il Cairo, Egitto

latitudine: 30-08N, longitudine: 031-24E, altezza: 64 m

Osservazione

Il bollettino è stato emesso 22 minuti fa, alle 18:30 UTC
Vento 10 kt da nord-est
Temperature 29°C
Umidità 58%
Pressione 1009 hPa
Visibilità: 6000 m
Nubi sparse ad un'altezza di 2500 ft

METAR: HECA 251830Z 04010KT 6000 SCT025 29/20 Q1009 NOSIG

Ora: 20:52 (18:52 UTC)

Previsione

Il bollettino è stato emesso 1 ora e 52 minuti fa, alle 17:00 UTC
Previsione valida dal 25 alle 18 UTC al 26 alle 24 UTC
Vento 12 kt da nord/nord-ovest
Visibilità: 6000 m
Evoluzione graduale
dal 25 alle 20 UTC al 25 alle 22 UTC
Vento 9 kt da nord
Visibilità 10 km o più
nessuna nube inferiore a 1500 m e nessun cumulonembo
Temporaneamente
dal 26 alle 03 UTC al 26 alle 07 UTC

TAF: HECA 251700Z 2518/2624 34012KT 6000 NSC BECMG 2520/2522 35009KT CAVOK TEMPO 2603/2607 4000HZ

Osservazioni e previsioni meteorologiche di più di 4000 aeroporti (messaggi METAR e TAF).

Le stazioni disponibili sono rappresentate dai dischi gialli e rossi sulla carta.

Puntare il mouse per vedere il nome della stazione.

Clicca sopra per visualizzare le osservazioni e previsioni meteorologiche.

Per cambiare la mappa : fare clic sui pulsanti verdi con una croce nera per ingrandire, il pulsante verde con un trattino per diminuire, o sulla freccia verde per le mappe adiacenti.


METAR-TAF: